Main page
METAR-TAF:

METAR-TAF

Airports :

Ajaccio Napoleon Bonaparte Airport

Ajaccio, France

latitude: 41-55N, longitude: 008-48E, elevation: 6 m

Current weather observation

The report was made 35 minutes ago, at 23:30 UTC
Wind 5 kt from the Northeast
Temperature 21°C
Humidity 73%
Pressure 1013 hPa
Visibility 10 km or more
no clouds below 1500 m and no cumulonimbus

METAR: LFKJ 132330Z AUTO 05005KT CAVOK 21/16 Q1013 NOSIG

Time: 02:05 (00:05 UTC)

Forecast

The report was made 4 hours and 5 minutes ago, at 20:00 UTC
Forecast valid from 13 at 21 UTC to 14 at 21 UTC
Wind 4 kt from the Northeast
Visibility 10 km or more
no clouds below 1500 m and no cumulonimbus
Becoming
from 14 at 07 UTC to 14 at 10 UTC
Wind 12 kt from the Southwest
Becoming
from 14 at 17 UTC to 14 at 20 UTC
Wind 4 kt from the Northeast

TAF: LFKJ 132000Z 1321/1421 04004KT CAVOK BECMG 1407/1410 22012KT BECMG 1417/1420 04004KT

Weather observations and forecasts of more than 4000 airports (METAR and TAF reports).

The available stations are represented by yellow and red dots on the map.

Hover mouse over dot to see the name of the station.

Then click to see weather observations and forecasts.

To change the map : click on the green buttons with a black cross to zoom in, on the green button with a dash to zoom out, or on the green arrows for adjacent maps.


METAR-TAF: